sensor_id;sensor_type;location;lat;lon;timestamp;P1;durP1;ratioP1;P2;durP2;ratioP2
64188;SDS011;50493;50.970;10.082;2023-03-20T00:00:40;3.70;;;2.60;;
64188;SDS011;50493;50.970;10.082;2023-03-20T00:03:08;5.25;;;2.70;;
64188;SDS011;50493;50.970;10.082;2023-03-20T00:05:34;5.90;;;2.75;;
64188;SDS011;50493;50.970;10.082;2023-03-20T00:08:00;4.80;;;2.70;;
64188;SDS011;50493;50.970;10.082;2023-03-20T00:10:27;5.35;;;2.85;;
64188;SDS011;50493;50.970;10.082;2023-03-20T00:12:57;4.00;;;2.50;;
64188;SDS011;50493;50.970;10.082;2023-03-20T00:15:23;5.13;;;3.03;;
64188;SDS011;50493;50.970;10.082;2023-03-20T00:17:53;5.75;;;3.03;;
64188;SDS011;50493;50.970;10.082;2023-03-20T00:20:19;4.57;;;2.70;;
64188;SDS011;50493;50.970;10.082;2023-03-20T00:22:45;6.72;;;2.75;;
64188;SDS011;50493;50.970;10.082;2023-03-20T00:25:12;4.57;;;2.40;;
64188;SDS011;50493;50.970;10.082;2023-03-20T00:27:39;5.07;;;3.30;;
64188;SDS011;50493;50.970;10.082;2023-03-20T00:30:08;4.07;;;2.90;;
64188;SDS011;50493;50.970;10.082;2023-03-20T00:32:42;5.65;;;2.50;;
64188;SDS011;50493;50.970;10.082;2023-03-20T00:35:14;5.47;;;2.58;;
64188;SDS011;50493;50.970;10.082;2023-03-20T00:37:42;4.20;;;2.70;;
64188;SDS011;50493;50.970;10.082;2023-03-20T00:40:08;4.60;;;2.92;;
64188;SDS011;50493;50.970;10.082;2023-03-20T00:42:34;5.70;;;2.45;;
64188;SDS011;50493;50.970;10.082;2023-03-20T00:45:00;4.07;;;2.78;;
64188;SDS011;50493;50.970;10.082;2023-03-20T00:47:26;5.25;;;3.20;;
64188;SDS011;50493;50.970;10.082;2023-03-20T00:49:52;9.85;;;2.90;;
64188;SDS011;50493;50.970;10.082;2023-03-20T00:52:20;6.28;;;3.17;;
64188;SDS011;50493;50.970;10.082;2023-03-20T00:54:46;7.55;;;3.03;;
64188;SDS011;50493;50.970;10.082;2023-03-20T00:57:13;6.53;;;2.38;;
64188;SDS011;50493;50.970;10.082;2023-03-20T00:59:46;6.50;;;2.53;;
64188;SDS011;50493;50.970;10.082;2023-03-20T01:02:16;5.43;;;2.70;;
64188;SDS011;50493;50.970;10.082;2023-03-20T01:04:41;8.18;;;2.60;;
64188;SDS011;50493;50.970;10.082;2023-03-20T01:07:09;4.63;;;2.50;;
64188;SDS011;50493;50.970;10.082;2023-03-20T01:09:39;3.78;;;2.53;;
64188;SDS011;50493;50.970;10.082;2023-03-20T01:12:05;3.50;;;2.28;;
64188;SDS011;50493;50.970;10.082;2023-03-20T01:14:32;4.22;;;2.30;;
64188;SDS011;50493;50.970;10.082;2023-03-20T01:16:58;6.80;;;2.60;;
64188;SDS011;50493;50.970;10.082;2023-03-20T01:19:24;4.47;;;2.15;;
64188;SDS011;50493;50.970;10.082;2023-03-20T01:21:50;3.63;;;2.20;;
64188;SDS011;50493;50.970;10.082;2023-03-20T01:24:15;4.07;;;2.17;;
64188;SDS011;50493;50.970;10.082;2023-03-20T01:26:42;3.65;;;2.30;;
64188;SDS011;50493;50.970;10.082;2023-03-20T01:29:12;5.65;;;2.28;;
64188;SDS011;50493;50.970;10.082;2023-03-20T01:31:42;6.05;;;2.60;;
64188;SDS011;50493;50.970;10.082;2023-03-20T01:34:08;4.22;;;2.60;;
64188;SDS011;50493;50.970;10.082;2023-03-20T01:36:34;4.60;;;2.47;;
64188;SDS011;50493;50.970;10.082;2023-03-20T01:39:01;4.57;;;2.65;;
64188;SDS011;50493;50.970;10.082;2023-03-20T01:41:26;4.00;;;2.30;;
64188;SDS011;50493;50.970;10.082;2023-03-20T01:43:54;3.95;;;2.55;;
64188;SDS011;50493;50.970;10.082;2023-03-20T01:46:22;3.83;;;2.38;;
64188;SDS011;50493;50.970;10.082;2023-03-20T01:48:55;4.93;;;2.50;;
64188;SDS011;50493;50.970;10.082;2023-03-20T01:51:25;5.43;;;2.45;;
64188;SDS011;50493;50.970;10.082;2023-03-20T01:53:53;3.92;;;2.50;;
64188;SDS011;50493;50.970;10.082;2023-03-20T01:56:22;4.38;;;2.60;;
64188;SDS011;50493;50.970;10.082;2023-03-20T01:58:49;3.75;;;2.55;;
64188;SDS011;50493;50.970;10.082;2023-03-20T02:01:20;4.50;;;2.63;;
64188;SDS011;50493;50.970;10.082;2023-03-20T02:03:48;4.25;;;2.58;;
64188;SDS011;50493;50.970;10.082;2023-03-20T02:06:14;4.07;;;2.60;;
64188;SDS011;50493;50.970;10.082;2023-03-20T02:08:41;6.47;;;2.70;;
64188;SDS011;50493;50.970;10.082;2023-03-20T02:11:09;5.90;;;2.33;;
64188;SDS011;50493;50.970;10.082;2023-03-20T02:13:35;4.55;;;2.50;;
64188;SDS011;50493;50.970;10.082;2023-03-20T02:16:02;4.95;;;2.20;;
64188;SDS011;50493;50.970;10.082;2023-03-20T02:18:31;4.75;;;2.50;;
64188;SDS011;50493;50.970;10.082;2023-03-20T02:21:12;4.95;;;2.53;;
64188;SDS011;50493;50.970;10.082;2023-03-20T02:26:41;4.25;;;2.83;;
64188;SDS011;50493;50.970;10.082;2023-03-20T02:29:25;4.65;;;3.28;;
64188;SDS011;50493;50.970;10.082;2023-03-20T02:32:28;5.18;;;3.15;;
64188;SDS011;50493;50.970;10.082;2023-03-20T02:35:24;7.35;;;2.80;;
64188;SDS011;50493;50.970;10.082;2023-03-20T02:38:19;5.40;;;2.63;;
64188;SDS011;50493;50.970;10.082;2023-03-20T02:40:56;4.63;;;2.75;;
64188;SDS011;50493;50.970;10.082;2023-03-20T02:43:31;4.05;;;2.78;;
64188;SDS011;50493;50.970;10.082;2023-03-20T02:46:06;4.18;;;2.50;;
64188;SDS011;50493;50.970;10.082;2023-03-20T02:48:38;4.47;;;2.75;;
64188;SDS011;50493;50.970;10.082;2023-03-20T02:51:17;4.63;;;3.05;;
64188;SDS011;50493;50.970;10.082;2023-03-20T02:53:51;6.80;;;3.00;;
64188;SDS011;50493;50.970;10.082;2023-03-20T02:56:21;6.30;;;3.10;;
64188;SDS011;50493;50.970;10.082;2023-03-20T02:58:55;5.22;;;3.05;;
64188;SDS011;50493;50.970;10.082;2023-03-20T03:01:26;4.95;;;3.08;;
64188;SDS011;50493;50.970;10.082;2023-03-20T03:03:57;5.85;;;3.00;;
64188;SDS011;50493;50.970;10.082;2023-03-20T03:06:28;4.38;;;2.67;;
64188;SDS011;50493;50.970;10.082;2023-03-20T03:08:57;4.70;;;2.92;;
64188;SDS011;50493;50.970;10.082;2023-03-20T03:11:26;4.28;;;2.67;;
64188;SDS011;50493;50.970;10.082;2023-03-20T03:13:52;6.05;;;3.05;;
64188;SDS011;50493;50.970;10.082;2023-03-20T03:16:21;6.15;;;2.80;;
64188;SDS011;50493;50.970;10.082;2023-03-20T03:19:01;5.53;;;3.20;;
64188;SDS011;50493;50.970;10.082;2023-03-20T03:21:31;4.50;;;2.72;;
64188;SDS011;50493;50.970;10.082;2023-03-20T03:23:59;4.78;;;2.72;;
64188;SDS011;50493;50.970;10.082;2023-03-20T03:26:26;4.30;;;2.63;;
64188;SDS011;50493;50.970;10.082;2023-03-20T03:28:56;4.07;;;2.92;;
64188;SDS011;50493;50.970;10.082;2023-03-20T03:31:23;4.05;;;2.50;;
64188;SDS011;50493;50.970;10.082;2023-03-20T03:33:51;4.95;;;2.72;;
64188;SDS011;50493;50.970;10.082;2023-03-20T03:36:22;4.50;;;2.90;;
64188;SDS011;50493;50.970;10.082;2023-03-20T03:38:57;4.30;;;2.90;;
64188;SDS011;50493;50.970;10.082;2023-03-20T03:41:28;5.85;;;2.63;;
64188;SDS011;50493;50.970;10.082;2023-03-20T03:44:01;6.25;;;3.45;;
64188;SDS011;50493;50.970;10.082;2023-03-20T03:46:34;7.47;;;3.80;;
64188;SDS011;50493;50.970;10.082;2023-03-20T03:49:05;5.50;;;2.88;;
64188;SDS011;50493;50.970;10.082;2023-03-20T03:51:34;4.80;;;3.15;;
64188;SDS011;50493;50.970;10.082;2023-03-20T03:54:06;4.75;;;2.83;;
64188;SDS011;50493;50.970;10.082;2023-03-20T03:56:34;5.80;;;3.03;;
64188;SDS011;50493;50.970;10.082;2023-03-20T03:59:03;5.88;;;3.30;;
64188;SDS011;50493;50.970;10.082;2023-03-20T04:01:33;5.18;;;3.13;;
64188;SDS011;50493;50.970;10.082;2023-03-20T04:04:00;4.72;;;3.20;;
64188;SDS011;50493;50.970;10.082;2023-03-20T04:06:30;4.60;;;2.60;;
64188;SDS011;50493;50.970;10.082;2023-03-20T04:08:56;4.97;;;2.92;;
64188;SDS011;50493;50.970;10.082;2023-03-20T04:11:24;6.70;;;3.78;;
64188;SDS011;50493;50.970;10.082;2023-03-20T04:13:52;4.38;;;3.08;;
64188;SDS011;50493;50.970;10.082;2023-03-20T04:16:18;6.50;;;3.10;;
64188;SDS011;50493;50.970;10.082;2023-03-20T04:18:45;4.97;;;3.00;;
64188;SDS011;50493;50.970;10.082;2023-03-20T04:21:11;4.85;;;2.80;;
64188;SDS011;50493;50.970;10.082;2023-03-20T04:23:37;4.85;;;3.22;;
64188;SDS011;50493;50.970;10.082;2023-03-20T04:26:02;6.07;;;3.38;;
64188;SDS011;50493;50.970;10.082;2023-03-20T04:28:29;4.90;;;3.40;;
64188;SDS011;50493;50.970;10.082;2023-03-20T04:30:56;5.05;;;3.28;;
64188;SDS011;50493;50.970;10.082;2023-03-20T04:33:23;5.25;;;3.25;;
64188;SDS011;50493;50.970;10.082;2023-03-20T04:35:49;5.68;;;3.60;;
64188;SDS011;50493;50.970;10.082;2023-03-20T04:38:15;5.30;;;3.20;;
64188;SDS011;50493;50.970;10.082;2023-03-20T04:40:40;5.82;;;3.28;;
64188;SDS011;50493;50.970;10.082;2023-03-20T04:43:05;4.65;;;3.13;;
64188;SDS011;50493;50.970;10.082;2023-03-20T04:45:32;6.25;;;3.10;;
64188;SDS011;50493;50.970;10.082;2023-03-20T04:47:58;6.60;;;3.40;;
64188;SDS011;50493;50.970;10.082;2023-03-20T04:50:23;5.15;;;3.40;;
64188;SDS011;50493;50.970;10.082;2023-03-20T04:52:48;5.95;;;3.75;;
64188;SDS011;50493;50.970;10.082;2023-03-20T04:55:14;6.68;;;4.28;;
64188;SDS011;50493;50.970;10.082;2023-03-20T04:57:40;7.93;;;4.15;;
64188;SDS011;50493;50.970;10.082;2023-03-20T05:00:06;5.88;;;3.60;;
64188;SDS011;50493;50.970;10.082;2023-03-20T05:02:33;5.65;;;3.30;;
64188;SDS011;50493;50.970;10.082;2023-03-20T05:04:59;6.85;;;3.20;;
64188;SDS011;50493;50.970;10.082;2023-03-20T05:07:24;6.72;;;3.58;;
64188;SDS011;50493;50.970;10.082;2023-03-20T05:09:50;6.07;;;3.97;;
64188;SDS011;50493;50.970;10.082;2023-03-20T05:12:15;5.60;;;3.80;;
64188;SDS011;50493;50.970;10.082;2023-03-20T05:14:41;4.38;;;2.92;;
64188;SDS011;50493;50.970;10.082;2023-03-20T05:17:06;5.05;;;3.25;;
64188;SDS011;50493;50.970;10.082;2023-03-20T05:19:33;4.35;;;3.00;;
64188;SDS011;50493;50.970;10.082;2023-03-20T05:21:58;5.32;;;3.10;;
64188;SDS011;50493;50.970;10.082;2023-03-20T05:24:25;9.23;;;4.60;;
64188;SDS011;50493;50.970;10.082;2023-03-20T05:26:53;6.88;;;4.68;;
64188;SDS011;50493;50.970;10.082;2023-03-20T05:29:18;5.57;;;3.63;;
64188;SDS011;50493;50.970;10.082;2023-03-20T05:31:44;5.97;;;3.97;;
64188;SDS011;50493;50.970;10.082;2023-03-20T05:34:09;7.82;;;4.35;;
64188;SDS011;50493;50.970;10.082;2023-03-20T05:36:36;6.22;;;4.05;;
64188;SDS011;50493;50.970;10.082;2023-03-20T05:39:01;6.13;;;4.22;;
64188;SDS011;50493;50.970;10.082;2023-03-20T05:41:27;7.90;;;4.28;;
64188;SDS011;50493;50.970;10.082;2023-03-20T05:43:52;6.40;;;4.28;;
64188;SDS011;50493;50.970;10.082;2023-03-20T05:46:18;5.00;;;3.38;;
64188;SDS011;50493;50.970;10.082;2023-03-20T05:48:43;4.43;;;3.20;;
64188;SDS011;50493;50.970;10.082;2023-03-20T05:51:08;5.70;;;3.38;;
64188;SDS011;50493;50.970;10.082;2023-03-20T05:53:35;5.78;;;3.25;;
64188;SDS011;50493;50.970;10.082;2023-03-20T05:56:00;5.00;;;3.13;;
64188;SDS011;50493;50.970;10.082;2023-03-20T05:58:26;4.20;;;2.90;;
64188;SDS011;50493;50.970;10.082;2023-03-20T06:00:51;9.45;;;6.05;;
64188;SDS011;50493;50.970;10.082;2023-03-20T06:03:17;10.73;;;7.10;;
64188;SDS011;50493;50.970;10.082;2023-03-20T06:05:42;5.93;;;4.50;;
64188;SDS011;50493;50.970;10.082;2023-03-20T06:08:08;5.25;;;3.30;;
64188;SDS011;50493;50.970;10.082;2023-03-20T06:10:35;5.57;;;3.30;;
64188;SDS011;50493;50.970;10.082;2023-03-20T06:13:00;11.07;;;6.63;;
64188;SDS011;50493;50.970;10.082;2023-03-20T06:15:25;10.10;;;7.00;;
64188;SDS011;50493;50.970;10.082;2023-03-20T06:17:52;10.68;;;6.72;;
64188;SDS011;50493;50.970;10.082;2023-03-20T06:20:17;10.57;;;6.95;;
64188;SDS011;50493;50.970;10.082;2023-03-20T06:22:43;11.90;;;6.50;;
64188;SDS011;50493;50.970;10.082;2023-03-20T06:25:09;9.82;;;5.70;;
64188;SDS011;50493;50.970;10.082;2023-03-20T06:27:36;11.25;;;6.90;;
64188;SDS011;50493;50.970;10.082;2023-03-20T06:30:01;13.40;;;8.48;;
64188;SDS011;50493;50.970;10.082;2023-03-20T06:32:26;15.32;;;9.80;;
64188;SDS011;50493;50.970;10.082;2023-03-20T06:34:52;12.63;;;8.40;;
64188;SDS011;50493;50.970;10.082;2023-03-20T06:37:18;13.13;;;9.27;;
64188;SDS011;50493;50.970;10.082;2023-03-20T06:39:44;13.52;;;9.90;;
64188;SDS011;50493;50.970;10.082;2023-03-20T06:42:10;16.15;;;10.25;;
64188;SDS011;50493;50.970;10.082;2023-03-20T06:44:38;12.88;;;8.70;;
64188;SDS011;50493;50.970;10.082;2023-03-20T06:47:03;16.48;;;9.25;;
64188;SDS011;50493;50.970;10.082;2023-03-20T06:49:29;15.32;;;8.82;;
64188;SDS011;50493;50.970;10.082;2023-03-20T06:51:55;14.43;;;8.52;;
64188;SDS011;50493;50.970;10.082;2023-03-20T06:54:20;13.27;;;7.90;;
64188;SDS011;50493;50.970;10.082;2023-03-20T06:56:46;8.13;;;5.40;;
64188;SDS011;50493;50.970;10.082;2023-03-20T06:59:11;18.42;;;11.90;;
64188;SDS011;50493;50.970;10.082;2023-03-20T07:01:38;17.70;;;12.40;;
64188;SDS011;50493;50.970;10.082;2023-03-20T07:04:04;20.23;;;12.68;;
64188;SDS011;50493;50.970;10.082;2023-03-20T07:06:30;18.92;;;12.13;;
64188;SDS011;50493;50.970;10.082;2023-03-20T07:08:56;10.65;;;6.38;;
64188;SDS011;50493;50.970;10.082;2023-03-20T07:11:21;13.60;;;8.23;;
64188;SDS011;50493;50.970;10.082;2023-03-20T07:13:47;14.02;;;8.15;;
64188;SDS011;50493;50.970;10.082;2023-03-20T07:16:12;15.70;;;9.93;;
64188;SDS011;50493;50.970;10.082;2023-03-20T07:18:39;14.88;;;9.52;;
64188;SDS011;50493;50.970;10.082;2023-03-20T07:21:04;15.85;;;10.23;;
64188;SDS011;50493;50.970;10.082;2023-03-20T07:23:32;15.20;;;9.10;;
64188;SDS011;50493;50.970;10.082;2023-03-20T07:26:01;8.10;;;5.10;;
64188;SDS011;50493;50.970;10.082;2023-03-20T07:28:26;6.57;;;4.38;;
64188;SDS011;50493;50.970;10.082;2023-03-20T07:30:51;6.90;;;4.35;;
64188;SDS011;50493;50.970;10.082;2023-03-20T07:33:17;10.35;;;6.00;;
64188;SDS011;50493;50.970;10.082;2023-03-20T07:35:43;15.65;;;9.20;;
64188;SDS011;50493;50.970;10.082;2023-03-20T07:38:09;16.25;;;9.63;;
64188;SDS011;50493;50.970;10.082;2023-03-20T07:40:35;13.55;;;8.60;;
64188;SDS011;50493;50.970;10.082;2023-03-20T07:43:00;13.07;;;8.50;;
64188;SDS011;50493;50.970;10.082;2023-03-20T07:45:25;12.13;;;8.23;;
64188;SDS011;50493;50.970;10.082;2023-03-20T07:47:51;15.27;;;9.93;;
64188;SDS011;50493;50.970;10.082;2023-03-20T07:50:16;16.33;;;10.85;;
64188;SDS011;50493;50.970;10.082;2023-03-20T07:52:46;14.73;;;10.35;;
64188;SDS011;50493;50.970;10.082;2023-03-20T07:55:11;13.52;;;8.57;;
64188;SDS011;50493;50.970;10.082;2023-03-20T07:57:37;14.80;;;10.32;;
64188;SDS011;50493;50.970;10.082;2023-03-20T08:00:03;13.80;;;9.00;;
64188;SDS011;50493;50.970;10.082;2023-03-20T08:02:29;14.65;;;9.07;;
64188;SDS011;50493;50.970;10.082;2023-03-20T08:04:54;13.82;;;8.27;;
64188;SDS011;50493;50.970;10.082;2023-03-20T08:07:20;15.90;;;9.35;;
64188;SDS011;50493;50.970;10.082;2023-03-20T08:09:47;12.63;;;7.55;;
64188;SDS011;50493;50.970;10.082;2023-03-20T08:12:12;12.85;;;8.10;;
64188;SDS011;50493;50.970;10.082;2023-03-20T08:14:37;15.02;;;9.25;;
64188;SDS011;50493;50.970;10.082;2023-03-20T08:17:03;14.98;;;9.55;;
64188;SDS011;50493;50.970;10.082;2023-03-20T08:19:29;12.05;;;8.25;;
64188;SDS011;50493;50.970;10.082;2023-03-20T08:21:54;15.57;;;9.45;;
64188;SDS011;50493;50.970;10.082;2023-03-20T08:24:19;13.88;;;8.93;;
64188;SDS011;50493;50.970;10.082;2023-03-20T08:26:47;15.85;;;10.07;;
64188;SDS011;50493;50.970;10.082;2023-03-20T08:29:12;15.15;;;9.35;;
64188;SDS011;50493;50.970;10.082;2023-03-20T08:31:41;14.60;;;8.50;;
64188;SDS011;50493;50.970;10.082;2023-03-20T08:34:06;15.75;;;10.27;;
64188;SDS011;50493;50.970;10.082;2023-03-20T08:36:32;14.80;;;9.45;;
64188;SDS011;50493;50.970;10.082;2023-03-20T08:38:57;15.52;;;9.60;;
64188;SDS011;50493;50.970;10.082;2023-03-20T08:41:22;16.92;;;9.45;;
64188;SDS011;50493;50.970;10.082;2023-03-20T08:43:49;16.83;;;9.98;;
64188;SDS011;50493;50.970;10.082;2023-03-20T08:46:15;15.48;;;9.55;;
64188;SDS011;50493;50.970;10.082;2023-03-20T08:48:41;15.90;;;9.73;;
64188;SDS011;50493;50.970;10.082;2023-03-20T08:51:06;13.73;;;8.73;;
64188;SDS011;50493;50.970;10.082;2023-03-20T08:53:32;12.70;;;7.55;;
64188;SDS011;50493;50.970;10.082;2023-03-20T08:55:57;15.20;;;9.43;;
64188;SDS011;50493;50.970;10.082;2023-03-20T08:58:23;16.30;;;10.32;;
64188;SDS011;50493;50.970;10.082;2023-03-20T09:00:49;16.88;;;9.57;;
64188;SDS011;50493;50.970;10.082;2023-03-20T09:03:16;14.82;;;10.02;;
64188;SDS011;50493;50.970;10.082;2023-03-20T09:05:42;17.80;;;10.98;;
64188;SDS011;50493;50.970;10.082;2023-03-20T09:08:08;19.52;;;11.82;;
64188;SDS011;50493;50.970;10.082;2023-03-20T09:10:34;18.95;;;10.95;;
64188;SDS011;50493;50.970;10.082;2023-03-20T09:12:59;17.48;;;10.15;;
64188;SDS011;50493;50.970;10.082;2023-03-20T09:15:25;20.42;;;11.65;;
64188;SDS011;50493;50.970;10.082;2023-03-20T09:17:52;20.10;;;11.65;;
64188;SDS011;50493;50.970;10.082;2023-03-20T09:20:17;18.17;;;10.18;;
64188;SDS011;50493;50.970;10.082;2023-03-20T09:22:43;13.50;;;7.65;;
64188;SDS011;50493;50.970;10.082;2023-03-20T09:25:09;18.35;;;10.55;;
64188;SDS011;50493;50.970;10.082;2023-03-20T09:27:35;15.85;;;9.18;;
64188;SDS011;50493;50.970;10.082;2023-03-20T09:30:00;19.50;;;10.55;;
64188;SDS011;50493;50.970;10.082;2023-03-20T09:32:26;12.93;;;7.30;;
64188;SDS011;50493;50.970;10.082;2023-03-20T09:34:52;13.27;;;7.25;;
64188;SDS011;50493;50.970;10.082;2023-03-20T09:37:18;19.52;;;10.68;;
64188;SDS011;50493;50.970;10.082;2023-03-20T09:39:43;22.70;;;10.88;;
64188;SDS011;50493;50.970;10.082;2023-03-20T09:42:13;18.17;;;9.20;;
64188;SDS011;50493;50.970;10.082;2023-03-20T09:44:51;23.25;;;10.23;;
64188;SDS011;50493;50.970;10.082;2023-03-20T09:47:29;19.38;;;10.18;;
64188;SDS011;50493;50.970;10.082;2023-03-20T09:50:04;23.90;;;11.60;;
64188;SDS011;50493;50.970;10.082;2023-03-20T09:52:48;20.73;;;9.88;;
64188;SDS011;50493;50.970;10.082;2023-03-20T09:55:21;27.83;;;12.98;;
64188;SDS011;50493;50.970;10.082;2023-03-20T09:57:52;25.38;;;11.63;;
64188;SDS011;50493;50.970;10.082;2023-03-20T10:00:23;24.52;;;11.88;;
64188;SDS011;50493;50.970;10.082;2023-03-20T10:02:52;23.88;;;9.85;;
64188;SDS011;50493;50.970;10.082;2023-03-20T10:05:23;19.63;;;9.68;;
64188;SDS011;50493;50.970;10.082;2023-03-20T10:07:50;20.38;;;10.02;;
64188;SDS011;50493;50.970;10.082;2023-03-20T10:10:18;28.27;;;12.80;;
64188;SDS011;50493;50.970;10.082;2023-03-20T10:12:50;24.80;;;11.45;;
64188;SDS011;50493;50.970;10.082;2023-03-20T10:15:34;18.85;;;9.20;;
64188;SDS011;50493;50.970;10.082;2023-03-20T10:18:08;25.15;;;11.60;;
64188;SDS011;50493;50.970;10.082;2023-03-20T10:20:43;23.83;;;11.82;;
64188;SDS011;50493;50.970;10.082;2023-03-20T10:23:18;23.88;;;11.70;;
64188;SDS011;50493;50.970;10.082;2023-03-20T10:25:50;26.40;;;11.40;;
64188;SDS011;50493;50.970;10.082;2023-03-20T10:28:20;22.85;;;10.52;;
64188;SDS011;50493;50.970;10.082;2023-03-20T10:30:53;25.77;;;12.82;;
64188;SDS011;50493;50.970;10.082;2023-03-20T10:33:32;30.35;;;12.98;;
64188;SDS011;50493;50.970;10.082;2023-03-20T10:36:12;27.92;;;13.13;;
64188;SDS011;50493;50.970;10.082;2023-03-20T10:38:48;28.10;;;12.80;;
64188;SDS011;50493;50.970;10.082;2023-03-20T10:41:20;28.10;;;12.68;;
64188;SDS011;50493;50.970;10.082;2023-03-20T10:43:50;31.90;;;14.65;;
64188;SDS011;50493;50.970;10.082;2023-03-20T10:46:17;28.40;;;13.40;;
64188;SDS011;50493;50.970;10.082;2023-03-20T10:51:16;23.60;;;11.77;;
64188;SDS011;50493;50.970;10.082;2023-03-20T10:53:45;21.25;;;10.20;;
64188;SDS011;50493;50.970;10.082;2023-03-20T10:56:12;23.38;;;12.35;;
64188;SDS011;50493;50.970;10.082;2023-03-20T10:58:41;16.60;;;8.77;;
64188;SDS011;50493;50.970;10.082;2023-03-20T11:01:09;20.15;;;10.20;;
64188;SDS011;50493;50.970;10.082;2023-03-20T11:03:35;18.88;;;9.52;;
64188;SDS011;50493;50.970;10.082;2023-03-20T11:06:04;16.52;;;9.18;;
64188;SDS011;50493;50.970;10.082;2023-03-20T11:08:38;19.27;;;9.00;;
64188;SDS011;50493;50.970;10.082;2023-03-20T11:11:05;16.25;;;8.77;;
64188;SDS011;50493;50.970;10.082;2023-03-20T11:13:31;16.77;;;8.40;;
64188;SDS011;50493;50.970;10.082;2023-03-20T11:16:07;12.55;;;6.30;;
64188;SDS011;50493;50.970;10.082;2023-03-20T11:18:35;17.70;;;7.95;;
64188;SDS011;50493;50.970;10.082;2023-03-20T11:21:01;14.55;;;7.78;;
64188;SDS011;50493;50.970;10.082;2023-03-20T11:23:27;13.38;;;7.68;;
64188;SDS011;50493;50.970;10.082;2023-03-20T11:25:58;14.25;;;7.00;;
64188;SDS011;50493;50.970;10.082;2023-03-20T11:28:29;13.43;;;7.72;;
64188;SDS011;50493;50.970;10.082;2023-03-20T11:30:57;15.82;;;8.38;;
64188;SDS011;50493;50.970;10.082;2023-03-20T11:33:24;15.27;;;7.63;;
64188;SDS011;50493;50.970;10.082;2023-03-20T11:35:52;13.02;;;6.22;;
64188;SDS011;50493;50.970;10.082;2023-03-20T11:38:20;13.23;;;7.43;;
64188;SDS011;50493;50.970;10.082;2023-03-20T11:40:46;14.32;;;7.43;;
64188;SDS011;50493;50.970;10.082;2023-03-20T11:43:17;16.65;;;7.78;;
64188;SDS011;50493;50.970;10.082;2023-03-20T11:45:44;14.30;;;7.00;;
64188;SDS011;50493;50.970;10.082;2023-03-20T11:48:14;10.65;;;5.93;;
64188;SDS011;50493;50.970;10.082;2023-03-20T11:50:43;12.27;;;6.28;;
64188;SDS011;50493;50.970;10.082;2023-03-20T11:53:18;14.00;;;7.45;;
64188;SDS011;50493;50.970;10.082;2023-03-20T11:55:56;14.32;;;7.10;;
64188;SDS011;50493;50.970;10.082;2023-03-20T11:58:26;14.02;;;7.68;;
64188;SDS011;50493;50.970;10.082;2023-03-20T12:00:53;13.35;;;7.10;;
64188;SDS011;50493;50.970;10.082;2023-03-20T12:03:36;15.90;;;7.78;;
64188;SDS011;50493;50.970;10.082;2023-03-20T12:06:12;12.48;;;6.97;;
64188;SDS011;50493;50.970;10.082;2023-03-20T12:08:39;13.70;;;7.05;;
64188;SDS011;50493;50.970;10.082;2023-03-20T12:11:07;14.20;;;6.90;;
64188;SDS011;50493;50.970;10.082;2023-03-20T12:13:46;12.00;;;6.72;;
64188;SDS011;50493;50.970;10.082;2023-03-20T12:16:15;12.32;;;6.35;;
64188;SDS011;50493;50.970;10.082;2023-03-20T12:18:44;13.27;;;7.05;;
64188;SDS011;50493;50.970;10.082;2023-03-20T12:21:14;12.75;;;7.00;;
64188;SDS011;50493;50.970;10.082;2023-03-20T12:23:46;11.38;;;5.80;;
64188;SDS011;50493;50.970;10.082;2023-03-20T12:26:17;13.50;;;6.63;;
64188;SDS011;50493;50.970;10.082;2023-03-20T12:28:49;11.65;;;6.22;;
64188;SDS011;50493;50.970;10.082;2023-03-20T12:31:23;11.90;;;6.32;;
64188;SDS011;50493;50.970;10.082;2023-03-20T12:33:51;11.52;;;5.95;;
64188;SDS011;50493;50.970;10.082;2023-03-20T12:36:23;11.80;;;6.90;;
64188;SDS011;50493;50.970;10.082;2023-03-20T12:38:53;11.43;;;5.95;;
64188;SDS011;50493;50.970;10.082;2023-03-20T12:41:21;12.82;;;6.10;;
64188;SDS011;50493;50.970;10.082;2023-03-20T12:44:01;11.40;;;6.07;;
64188;SDS011;50493;50.970;10.082;2023-03-20T12:46:39;10.77;;;5.65;;
64188;SDS011;50493;50.970;10.082;2023-03-20T12:49:10;10.45;;;6.10;;
64188;SDS011;50493;50.970;10.082;2023-03-20T12:51:48;11.10;;;6.05;;
64188;SDS011;50493;50.970;10.082;2023-03-20T12:54:25;12.18;;;5.97;;
64188;SDS011;50493;50.970;10.082;2023-03-20T12:57:04;10.85;;;5.85;;
64188;SDS011;50493;50.970;10.082;2023-03-20T12:59:43;11.77;;;5.97;;
64188;SDS011;50493;50.970;10.082;2023-03-20T13:02:18;10.88;;;5.90;;
64188;SDS011;50493;50.970;10.082;2023-03-20T13:05:00;11.65;;;6.28;;
64188;SDS011;50493;50.970;10.082;2023-03-20T13:07:38;12.68;;;6.63;;
64188;SDS011;50493;50.970;10.082;2023-03-20T13:10:18;11.88;;;5.82;;
64188;SDS011;50493;50.970;10.082;2023-03-20T13:12:47;11.02;;;6.00;;
64188;SDS011;50493;50.970;10.082;2023-03-20T13:15:23;12.10;;;6.30;;
64188;SDS011;50493;50.970;10.082;2023-03-20T13:17:57;10.48;;;6.53;;
64188;SDS011;50493;50.970;10.082;2023-03-20T13:20:28;10.02;;;5.82;;
64188;SDS011;50493;50.970;10.082;2023-03-20T13:22:58;10.68;;;6.38;;
64188;SDS011;50493;50.970;10.082;2023-03-20T13:25:40;11.50;;;5.80;;
64188;SDS011;50493;50.970;10.082;2023-03-20T13:28:36;11.63;;;6.35;;
64188;SDS011;50493;50.970;10.082;2023-03-20T13:31:12;12.48;;;6.45;;
64188;SDS011;50493;50.970;10.082;2023-03-20T13:33:48;12.43;;;5.82;;
64188;SDS011;50493;50.970;10.082;2023-03-20T13:36:24;11.73;;;5.85;;
64188;SDS011;50493;50.970;10.082;2023-03-20T13:38:59;11.13;;;6.07;;
64188;SDS011;50493;50.970;10.082;2023-03-20T13:41:29;11.80;;;6.25;;
64188;SDS011;50493;50.970;10.082;2023-03-20T13:43:58;12.02;;;6.22;;
64188;SDS011;50493;50.970;10.082;2023-03-20T13:46:31;12.00;;;6.35;;
64188;SDS011;50493;50.970;10.082;2023-03-20T13:49:00;12.32;;;6.30;;
64188;SDS011;50493;50.970;10.082;2023-03-20T13:51:31;10.73;;;5.32;;
64188;SDS011;50493;50.970;10.082;2023-03-20T13:54:05;12.02;;;6.10;;
64188;SDS011;50493;50.970;10.082;2023-03-20T14:04:32;9.98;;;5.68;;
64188;SDS011;50493;50.970;10.082;2023-03-20T14:06:58;10.68;;;6.07;;
64188;SDS011;50493;50.970;10.082;2023-03-20T14:09:31;13.35;;;6.30;;
64188;SDS011;50493;50.970;10.082;2023-03-20T14:11:59;10.40;;;5.85;;
64188;SDS011;50493;50.970;10.082;2023-03-20T14:14:28;9.93;;;5.00;;
64188;SDS011;50493;50.970;10.082;2023-03-20T14:19:44;10.65;;;6.38;;
64188;SDS011;50493;50.970;10.082;2023-03-20T14:22:15;9.82;;;6.07;;
64188;SDS011;50493;50.970;10.082;2023-03-20T14:24:44;8.68;;;5.07;;
64188;SDS011;50493;50.970;10.082;2023-03-20T14:27:16;9.80;;;5.65;;
64188;SDS011;50493;50.970;10.082;2023-03-20T14:29:42;10.45;;;4.97;;
64188;SDS011;50493;50.970;10.082;2023-03-20T14:35:13;9.13;;;5.15;;
64188;SDS011;50493;50.970;10.082;2023-03-20T14:37:56;8.07;;;4.95;;
64188;SDS011;50493;50.970;10.082;2023-03-20T14:40:30;7.93;;;4.97;;
64188;SDS011;50493;50.970;10.082;2023-03-20T14:43:02;8.15;;;4.18;;
64188;SDS011;50493;50.970;10.082;2023-03-20T14:45:39;9.30;;;4.53;;
64188;SDS011;50493;50.970;10.082;2023-03-20T14:48:21;9.27;;;5.25;;
64188;SDS011;50493;50.970;10.082;2023-03-20T14:51:03;10.35;;;4.82;;
64188;SDS011;50493;50.970;10.082;2023-03-20T14:53:38;7.85;;;4.60;;
64188;SDS011;50493;50.970;10.082;2023-03-20T14:56:05;8.32;;;4.68;;